createdAt,value
2018-08-03T00:01:23.459Z,60.70
2018-08-03T00:04:56.713Z,60.40
2018-08-03T00:08:29.947Z,60.50
2018-08-03T00:12:03.173Z,60.40
2018-08-03T00:15:36.397Z,60.40
2018-08-03T00:19:09.618Z,60.30
2018-08-03T00:22:42.831Z,60.20
2018-08-03T00:26:16.048Z,60.20
2018-08-03T00:29:49.280Z,60.10
2018-08-03T00:33:22.925Z,60.10
2018-08-03T00:36:56.177Z,60.10
2018-08-03T00:40:29.415Z,60.00
2018-08-03T00:44:02.662Z,60.00
2018-08-03T00:47:35.992Z,60.00
2018-08-03T00:51:09.242Z,60.20
2018-08-03T00:54:42.482Z,60.30
2018-08-03T01:01:48.691Z,60.30
2018-08-03T01:05:21.933Z,60.40
2018-08-03T01:08:55.159Z,60.40
2018-08-03T01:12:28.399Z,60.50
2018-08-03T01:16:01.644Z,60.30
2018-08-03T01:19:34.883Z,60.40
2018-08-03T01:23:08.112Z,60.40
2018-08-03T01:26:41.432Z,60.50
2018-08-03T01:30:14.724Z,60.60
2018-08-03T01:33:47.982Z,60.80
2018-08-03T01:37:21.225Z,60.90
2018-08-03T01:40:54.541Z,61.00
2018-08-03T01:44:27.810Z,61.10
2018-08-03T01:48:01.035Z,61.00
2018-08-03T01:51:34.278Z,60.90
2018-08-03T01:55:07.536Z,60.80
2018-08-03T01:58:40.893Z,60.90
2018-08-03T02:02:14.128Z,60.80
2018-08-03T02:05:47.361Z,60.80
2018-08-03T02:09:20.610Z,60.90
2018-08-03T02:12:53.849Z,61.10
2018-08-03T02:16:27.092Z,61.40
2018-08-03T02:20:00.330Z,61.40
2018-08-03T02:23:33.564Z,61.40
2018-08-03T02:27:06.804Z,61.40
2018-08-03T02:30:40.060Z,61.50
2018-08-03T02:34:13.361Z,61.50
2018-08-03T02:37:46.548Z,61.50
2018-08-03T02:41:19.799Z,61.50
2018-08-03T02:44:53.033Z,61.50
2018-08-03T02:48:26.281Z,61.60
2018-08-03T02:51:59.559Z,61.70
2018-08-03T02:55:32.804Z,61.80
2018-08-03T02:59:06.060Z,62.00
2018-08-03T03:02:39.416Z,62.10
2018-08-03T03:06:12.666Z,62.10
2018-08-03T03:09:45.912Z,62.30
2018-08-03T03:13:19.130Z,62.40
2018-08-03T03:16:52.404Z,62.50
2018-08-03T03:20:25.655Z,62.50
2018-08-03T03:23:58.905Z,62.50
2018-08-03T03:27:32.128Z,62.70
2018-08-03T03:31:05.387Z,62.90
2018-08-03T03:34:38.720Z,62.90
2018-08-03T03:38:11.957Z,63.00
2018-08-03T03:41:45.205Z,63.20
2018-08-03T03:45:18.437Z,63.20
2018-08-03T03:48:51.781Z,63.40
2018-08-03T03:59:31.013Z,63.90
2018-08-03T04:03:04.248Z,63.90
2018-08-03T04:06:37.488Z,64.00
2018-08-03T04:10:11.096Z,64.00
2018-08-03T04:13:44.325Z,63.90
2018-08-03T04:17:17.569Z,63.80
2018-08-03T04:20:52.424Z,63.80
2018-08-03T04:24:25.656Z,63.90
2018-08-03T04:27:58.908Z,63.90
2018-08-03T04:35:05.205Z,64.00
2018-08-03T04:38:38.456Z,64.90
2018-08-03T04:42:11.767Z,64.10
2018-08-03T04:45:44.984Z,64.10
2018-08-03T04:49:18.204Z,64.10
2018-08-03T04:52:51.537Z,64.10
2018-08-03T04:56:24.769Z,64.10
2018-08-03T04:59:57.992Z,64.30
2018-08-03T05:03:31.247Z,64.20
2018-08-03T05:07:04.493Z,64.20
2018-08-03T05:10:37.772Z,64.20
2018-08-03T05:14:11.210Z,64.30
2018-08-03T05:17:44.544Z,64.60
2018-08-03T05:28:23.882Z,64.60
2018-08-03T05:31:57.132Z,64.40
2018-08-03T05:35:30.416Z,64.10
2018-08-03T05:39:04.920Z,63.70
2018-08-03T05:42:38.233Z,63.00
2018-08-03T05:46:11.416Z,62.80
2018-08-03T05:49:44.662Z,62.50
2018-08-03T05:53:17.993Z,63.00
2018-08-03T05:56:51.756Z,61.90
2018-08-03T06:00:25.110Z,61.80
2018-08-03T06:03:58.367Z,61.60
2018-08-03T06:07:31.623Z,60.50
2018-08-03T06:11:04.862Z,59.80
2018-08-03T06:14:38.163Z,59.70
2018-08-03T06:18:11.394Z,59.30
2018-08-03T06:21:44.637Z,59.50
2018-08-03T06:25:17.889Z,60.00
2018-08-03T06:28:51.214Z,59.30
2018-08-03T06:32:24.479Z,59.00
2018-08-03T06:35:57.828Z,58.50
2018-08-03T06:39:31.093Z,58.30
2018-08-03T06:43:04.336Z,58.20
2018-08-03T06:46:37.620Z,57.80
2018-08-03T06:50:10.868Z,57.40
2018-08-03T06:53:44.283Z,57.50
2018-08-03T06:57:17.544Z,57.10
2018-08-03T07:00:50.771Z,56.80
2018-08-03T07:04:24.057Z,56.00
2018-08-03T07:07:57.255Z,55.70
2018-08-03T07:15:03.501Z,54.30
2018-08-03T07:18:36.732Z,54.00
2018-08-03T07:25:42.963Z,53.40
2018-08-03T07:29:16.209Z,53.30
2018-08-03T07:32:49.453Z,53.10
2018-08-03T07:36:22.696Z,52.90
2018-08-03T07:39:55.963Z,52.70
2018-08-03T07:43:29.207Z,52.60
2018-08-03T07:47:02.420Z,52.50
2018-08-03T07:50:35.681Z,52.50
2018-08-03T07:54:08.909Z,52.50
2018-08-03T07:57:42.252Z,52.40
2018-08-03T08:01:15.476Z,52.20
2018-08-03T08:04:48.719Z,51.90
2018-08-03T08:08:21.973Z,51.80
2018-08-03T08:11:55.200Z,51.50
2018-08-03T08:15:28.441Z,50.90
2018-08-03T08:22:34.660Z,50.50
2018-08-03T08:26:07.990Z,50.30
2018-08-03T08:29:41.195Z,50.10
2018-08-03T08:33:14.460Z,49.90
2018-08-03T08:36:47.693Z,49.40
2018-08-03T08:40:20.948Z,49.00
2018-08-03T08:43:54.370Z,48.90
2018-08-03T08:47:27.437Z,48.80
2018-08-03T08:51:00.682Z,48.60
2018-08-03T08:54:33.931Z,48.40
2018-08-03T08:58:07.161Z,47.90
2018-08-03T09:01:40.401Z,47.70
2018-08-03T09:05:13.632Z,47.60
2018-08-03T09:12:19.976Z,47.30
2018-08-03T09:15:53.221Z,47.00
2018-08-03T09:19:26.545Z,46.90
2018-08-03T09:22:59.884Z,46.70
2018-08-03T09:26:33.108Z,46.50
2018-08-03T09:30:07.822Z,46.10
2018-08-03T09:33:41.068Z,46.00
2018-08-03T09:37:14.303Z,46.00
2018-08-03T09:40:47.524Z,45.40
2018-08-03T09:44:20.776Z,45.30
2018-08-03T09:47:54.008Z,45.00
2018-08-03T09:51:27.252Z,45.00
2018-08-03T09:58:33.496Z,44.60
2018-08-03T10:02:06.739Z,44.00
2018-08-03T10:05:39.975Z,44.00
2018-08-03T10:09:13.208Z,43.70
2018-08-03T10:12:46.446Z,41.70
2018-08-03T10:16:19.695Z,40.90
2018-08-03T10:19:52.929Z,40.70
2018-08-03T10:23:26.173Z,40.30
2018-08-03T10:26:59.449Z,40.70
2018-08-03T10:30:32.676Z,41.20
2018-08-03T10:34:05.947Z,40.70
2018-08-03T10:37:39.191Z,40.30
2018-08-03T10:41:12.432Z,39.80
2018-08-03T10:44:45.676Z,39.10
2018-08-03T10:48:18.911Z,39.10
2018-08-03T10:51:52.165Z,39.50
2018-08-03T10:55:25.433Z,39.30
2018-08-03T10:58:58.660Z,38.70
2018-08-03T11:02:31.880Z,38.70
2018-08-03T11:06:05.109Z,38.30
2018-08-03T11:09:38.346Z,38.10
2018-08-03T11:16:44.564Z,37.70
2018-08-03T11:20:18.676Z,37.40
2018-08-03T11:23:51.921Z,37.30
2018-08-03T11:27:25.152Z,37.80
2018-08-03T11:30:58.388Z,37.80
2018-08-03T11:34:31.611Z,37.50
2018-08-03T11:38:04.884Z,37.40
2018-08-03T11:41:38.123Z,37.60
2018-08-03T11:45:11.680Z,37.50
2018-08-03T11:48:44.933Z,37.10
2018-08-03T11:52:18.168Z,36.80
2018-08-03T11:55:51.444Z,36.50
2018-08-03T11:59:24.684Z,36.40
2018-08-03T12:02:58.011Z,36.50
2018-08-03T12:06:31.295Z,36.20
2018-08-03T12:10:04.698Z,35.70
2018-08-03T12:13:37.928Z,36.20
2018-08-03T12:17:11.332Z,35.40
2018-08-03T12:20:46.130Z,35.60
2018-08-03T12:24:19.368Z,35.10
2018-08-03T12:27:52.616Z,35.00
2018-08-03T12:31:25.938Z,34.80
2018-08-03T12:38:32.122Z,34.30
2018-08-03T12:42:05.372Z,34.00
2018-08-03T12:45:38.655Z,33.20
2018-08-03T12:49:11.866Z,33.20
2018-08-03T12:52:45.186Z,33.30
2018-08-03T12:56:18.384Z,33.60
2018-08-03T12:59:51.693Z,34.10
2018-08-03T13:03:24.874Z,33.70
2018-08-03T13:06:58.136Z,34.00
2018-08-03T13:10:31.372Z,34.30
2018-08-03T13:14:04.605Z,34.30
2018-08-03T13:17:37.840Z,34.10
2018-08-03T13:21:43.172Z,34.30
2018-08-03T13:25:16.436Z,34.40
2018-08-03T13:28:50.328Z,34.40
2018-08-03T13:32:23.576Z,34.60
2018-08-03T13:35:56.825Z,33.90
2018-08-03T13:39:30.120Z,33.40
2018-08-03T13:43:03.382Z,33.10
2018-08-03T13:46:36.644Z,32.80
2018-08-03T13:50:10.311Z,32.40
2018-08-03T13:53:44.929Z,32.10
2018-08-03T13:57:18.170Z,31.40
2018-08-03T14:00:56.683Z,31.10
2018-08-03T14:04:29.933Z,31.00
2018-08-03T14:08:03.199Z,30.70
2018-08-03T14:11:36.992Z,30.00
2018-08-03T14:15:10.900Z,29.80
2018-08-03T14:18:45.335Z,30.00
2018-08-03T14:25:51.955Z,30.80
2018-08-03T14:29:25.230Z,30.60
2018-08-03T14:32:58.500Z,30.10
2018-08-03T14:36:31.881Z,30.00
2018-08-03T14:40:05.292Z,29.60
2018-08-03T14:43:38.523Z,29.20
2018-08-03T14:47:12.090Z,29.30
2018-08-03T14:50:45.548Z,29.20
2018-08-03T14:54:18.805Z,29.20
2018-08-03T15:01:25.154Z,29.00
2018-08-03T15:04:58.413Z,28.50
2018-08-03T15:12:21.125Z,28.20
2018-08-03T15:15:54.352Z,28.20
2018-08-03T15:19:27.796Z,28.10
2018-08-03T15:26:34.065Z,28.00
2018-08-03T15:30:08.908Z,27.80
2018-08-03T15:33:42.171Z,27.80
2018-08-03T15:37:15.563Z,27.50
2018-08-03T15:40:48.902Z,27.60
2018-08-03T15:44:22.128Z,27.70
2018-08-03T15:47:55.376Z,27.70
2018-08-03T15:51:28.632Z,27.80
2018-08-03T15:55:01.857Z,27.70
2018-08-03T15:58:35.179Z,27.60
2018-08-03T16:02:08.396Z,27.60
2018-08-03T16:05:41.644Z,27.70
2018-08-03T16:09:14.912Z,27.60
2018-08-03T16:12:48.173Z,27.40
2018-08-03T16:16:21.453Z,27.30
2018-08-03T16:19:54.713Z,27.40
2018-08-03T16:23:27.964Z,27.20
2018-08-03T16:27:01.661Z,27.00
2018-08-03T16:30:34.938Z,26.80
2018-08-03T16:34:08.199Z,26.90
2018-08-03T16:37:41.448Z,27.10
2018-08-03T16:41:14.698Z,27.30
2018-08-03T16:44:47.952Z,27.70
2018-08-03T16:48:21.195Z,27.70
2018-08-03T16:51:54.457Z,28.00
2018-08-03T16:55:27.727Z,28.50
2018-08-03T16:59:01.438Z,28.70
2018-08-03T17:02:34.676Z,29.10
2018-08-03T17:06:07.926Z,29.20
2018-08-03T17:09:41.169Z,29.30
2018-08-03T17:13:14.457Z,29.40
2018-08-03T17:16:47.674Z,30.30
2018-08-03T17:20:20.990Z,29.70
2018-08-03T17:23:54.188Z,29.90
2018-08-03T17:27:27.471Z,30.00
2018-08-03T17:31:00.724Z,30.10
2018-08-03T17:34:33.952Z,30.30
2018-08-03T17:38:07.226Z,30.40
2018-08-03T17:41:40.785Z,30.30
2018-08-03T17:45:14.002Z,30.40
2018-08-03T17:48:47.250Z,30.80
2018-08-03T17:52:20.492Z,33.70
2018-08-03T17:55:53.742Z,35.40
2018-08-03T17:59:27.007Z,36.00
2018-08-03T18:03:00.298Z,36.70
2018-08-03T18:06:33.509Z,37.40
2018-08-03T18:10:07.081Z,38.50
2018-08-03T18:13:40.374Z,39.30
2018-08-03T18:17:13.637Z,40.20
2018-08-03T18:20:46.900Z,41.00
2018-08-03T18:24:20.135Z,41.70
2018-08-03T18:27:53.419Z,42.60
2018-08-03T18:31:26.697Z,43.20
2018-08-03T18:34:59.936Z,43.70
2018-08-03T18:38:33.167Z,44.30
2018-08-03T18:42:06.409Z,44.90
2018-08-03T18:45:39.661Z,45.30
2018-08-03T18:52:45.910Z,45.70
2018-08-03T18:56:19.169Z,45.70
2018-08-03T18:59:52.415Z,45.70
2018-08-03T19:03:25.664Z,45.80
2018-08-03T19:06:58.917Z,46.10
2018-08-03T19:10:32.168Z,46.20
2018-08-03T19:14:06.257Z,46.40
2018-08-03T19:17:39.499Z,46.50
2018-08-03T19:21:12.736Z,46.50
2018-08-03T19:24:45.999Z,46.60
2018-08-03T19:28:19.273Z,46.80
2018-08-03T19:35:25.531Z,47.10
2018-08-03T19:38:58.768Z,47.80
2018-08-03T19:42:32.012Z,48.80
2018-08-03T19:46:05.326Z,49.10
2018-08-03T19:49:38.568Z,49.30
2018-08-03T19:53:11.800Z,49.50
2018-08-03T19:56:45.212Z,49.40
2018-08-03T20:00:18.456Z,49.50
2018-08-03T20:03:51.705Z,49.50
2018-08-03T20:07:24.952Z,49.50
2018-08-03T20:10:58.214Z,49.60
2018-08-03T20:14:31.732Z,49.60
2018-08-03T20:18:05.155Z,49.80
2018-08-03T20:21:38.418Z,49.70
2018-08-03T20:25:11.687Z,49.70
2018-08-03T20:28:44.925Z,49.60
2018-08-03T20:32:18.241Z,49.60
2018-08-03T20:35:51.489Z,49.60
2018-08-03T20:39:24.728Z,49.70
2018-08-03T20:42:57.995Z,49.90
2018-08-03T20:46:31.354Z,49.90
2018-08-03T20:50:04.646Z,50.10
2018-08-03T20:53:37.891Z,50.30
2018-08-03T20:57:11.147Z,50.50
2018-08-03T21:00:44.404Z,51.00
2018-08-03T21:04:17.650Z,51.40
2018-08-03T21:07:50.944Z,51.60
2018-08-03T21:11:24.363Z,51.90
2018-08-03T21:14:57.935Z,52.00
2018-08-03T21:18:31.169Z,52.00
2018-08-03T21:22:04.468Z,52.00
2018-08-03T21:25:37.704Z,52.00
2018-08-03T21:29:11.034Z,52.00
2018-08-03T21:32:44.280Z,52.00
2018-08-03T21:36:17.560Z,52.00
2018-08-03T21:39:50.792Z,52.10
2018-08-03T21:46:57.008Z,52.50
2018-08-03T21:50:30.248Z,52.60
2018-08-03T21:54:04.003Z,52.80
2018-08-03T21:57:37.239Z,52.90
2018-08-03T22:01:12.364Z,52.90
2018-08-03T22:04:45.607Z,53.00
2018-08-03T22:08:18.877Z,53.00
2018-08-03T22:11:52.154Z,53.10
2018-08-03T22:15:25.413Z,53.20
2018-08-03T22:18:58.703Z,53.20
2018-08-03T22:22:31.891Z,53.30
2018-08-03T22:26:05.139Z,53.40
2018-08-03T22:36:44.409Z,53.50
2018-08-03T22:40:17.743Z,53.50
2018-08-03T22:43:50.975Z,53.40
2018-08-03T22:47:24.216Z,53.40
2018-08-03T22:50:57.455Z,53.40
2018-08-03T22:54:30.696Z,53.50
2018-08-03T22:58:04.144Z,53.50
2018-08-03T23:01:37.420Z,53.60
2018-08-03T23:05:10.680Z,53.70
2018-08-03T23:08:43.955Z,53.70
2018-08-03T23:12:17.288Z,53.70
2018-08-03T23:15:50.548Z,53.70
2018-08-03T23:19:23.788Z,53.80
2018-08-03T23:22:57.042Z,53.90
2018-08-03T23:26:30.276Z,54.00
2018-08-03T23:30:03.548Z,54.20
2018-08-03T23:33:36.790Z,54.30
2018-08-03T23:37:10.070Z,55.00
2018-08-03T23:40:43.364Z,54.50
2018-08-03T23:44:16.625Z,54.50
2018-08-03T23:47:49.901Z,54.40
2018-08-03T23:51:23.177Z,54.40
2018-08-03T23:54:56.440Z,54.30
2018-08-03T23:58:29.673Z,54.40
